This is the latest recevied weather packets stored in our database for station/object I1SXT-13. If no packets are shown the sender has not sent any weather packets the latest 10 day(s).
| Time | Temp. | Humidity | Pressure | Rain* | Wind** | Luminosity | Snow |
|---|---|---|---|---|---|---|---|
| 1778210970 | 15° C | 71% | 1012.1 hPa | 0 mm | - | - | - |
| 1778210666 | 14.44° C | 71% | 1012.9 hPa | 0 mm | - | - | - |
| 1778210369 | 14.44° C | 74% | 1012.7 hPa | 0 mm | - | - | - |
| 1778210065 | 15° C | 70% | 1013 hPa | 0 mm | - | - | - |
| 1778209463 | 15° C | 70% | 1013 hPa | 0 mm | - | - | - |
| 1778209166 | 14.44° C | 71% | 1013 hPa | 0 mm | - | - | - |
| 1778208869 | 14.44° C | 69% | 1013.3 hPa | 0 mm | - | - | - |
| 1778208565 | 14.44° C | 72% | 1014 hPa | 0 mm | - | - | - |
| 1778207964 | 13.33° C | 77% | 1012.8 hPa | 0 mm | - | - | - |
| 1778207667 | 13.33° C | 74% | 1012.5 hPa | 0 mm | - | - | - |
| 1778207370 | 12.78° C | 78% | 1014.1 hPa | 0 mm | - | - | - |
| 1778207065 | 13.33° C | 78% | 1013.4 hPa | 0 mm | - | - | - |
| 1778206768 | 12.78° C | 78% | 1013.2 hPa | 0 mm | - | - | - |
| 1778206464 | 12.22° C | 81% | 1013.7 hPa | 0 mm | - | - | - |
| 1778206167 | 11.67° C | 83% | 1013.2 hPa | 0 mm | - | - | - |
| 1778205870 | 11.11° C | 84% | 1014.1 hPa | 0 mm | - | - | - |
| 1778205566 | 11.67° C | 82% | 1013.9 hPa | 0 mm | - | - | - |
| 1778205269 | 11.67° C | 82% | 1013.8 hPa | 0 mm | - | - | - |
| 1778204965 | 11.11° C | 83% | 1014.1 hPa | 0 mm | - | - | - |
| 1778204667 | 11.67° C | 81% | 1013.3 hPa | 0 mm | - | - | - |
| 1778204364 | 11.67° C | 81% | 1014 hPa | 0 mm | - | - | - |
| 1778204066 | 12.22° C | 80% | 1013.7 hPa | 0 mm | - | - | - |
| 1778203769 | 12.22° C | 80% | 1014.3 hPa | 0 mm | - | - | - |
| 1778203465 | 11.67° C | 82% | 1013.6 hPa | 0 mm | - | - | - |
| 1778203168 | 11.67° C | 81% | 1014.1 hPa | 0 mm | - | - | - |
* Rain since midnight (hover to see other rain measurements)
** Current wind speed in m/s (hover to see current wind gust speed)